In Rescue
 
Open Full Screen Window  High Contrast Mode
Wind Gusting 00 knots
06
January 18, 2019 9:09 AM EST
Weather Information
Wind Direction
  310 °
Wind Speed
  06 kt (7 mph)
Wind Gust
  00 kt (0 mph)
Altimeter
30.12 in
Visibility
3 SM
Temperature
01° C
34° F
Dewpoint
00° C
32° F
Humidity
93%
1hr Rain Fall
00.00 in.
24hr Rain Fall
00.00 in.
Sky Condition
Overcast @ 800 ft
IFR

METAR KMRT 181409Z AUTO 31006KT 3SM OVC008 01/00 A3012 RMK AO2 T00051005

FAA Disclaimer: The data displayed is for advisory purposes only and is not to be used for flight planning or operations.